Time;durP1;ratioP1;P1;durP2;ratioP2;P2;SDS_P1;SDS_P2;PMS_P1;PMS_P2;Temp;Humidity;BMP_temperature;BMP_pressure;BME280_temperature;BME280_humidity;BME280_pressure;Samples;Min_cycle;Max_cycle;Signal;HPM_P1;HPM_P2
2023/12/30 00:01:48;;;;;;;6.55;4.95;;;9.80;88.60;;;;;;5066871;28;20085;-90
2023/12/30 00:04:14;;;;;;;4.32;3.63;;;9.80;88.60;;;;;;5067704;28;20079;-90
2023/12/30 00:06:40;;;;;;;5.97;3.67;;;9.80;89.60;;;;;;5066903;28;20036;-91
2023/12/30 00:09:06;;;;;;;3.50;2.28;;;9.70;93.10;;;;;;5067894;28;20033;-91
2023/12/30 00:11:33;;;;;;;4.90;2.22;;;9.60;95.40;;;;;;5065289;28;20053;-91
2023/12/30 00:13:58;;;;;;;3.80;3.50;;;9.50;97.50;;;;;;5057578;28;20048;-91
2023/12/30 00:16:27;;;;;;;4.43;2.35;;;9.40;98.00;;;;;;5057854;28;20025;-90
2023/12/30 00:18:53;;;;;;;4.65;2.17;;;9.40;98.40;;;;;;5065655;28;20029;-90
2023/12/30 00:21:22;;;;;;;4.38;3.58;;;9.40;99.90;;;;;;5047176;28;20028;-91
2023/12/30 00:23:49;;;;;;;5.53;2.35;;;9.30;99.90;;;;;;5047412;28;20100;-91
2023/12/30 00:26:22;;;;;;;3.72;2.10;;;9.10;99.90;;;;;;5065005;28;20039;-92
2023/12/30 00:28:49;;;;;;;5.28;2.35;;;9.00;99.90;;;;;;5064224;28;20017;-92
2023/12/30 00:31:25;;;;;;;4.97;2.30;;;8.90;99.90;;;;;;5064522;28;20017;-91
2023/12/30 00:33:52;;;;;;;3.67;2.40;;;8.80;99.90;;;;;;5047987;28;20017;-92
2023/12/30 00:36:18;;;;;;;4.80;2.42;;;8.80;99.90;;;;;;5047112;28;20027;-91
2023/12/30 00:38:45;;;;;;;2.92;2.47;;;8.80;99.90;;;;;;5066326;28;20089;-91
2023/12/30 00:41:13;;;;;;;4.38;2.30;;;8.70;99.90;;;;;;5048611;28;20025;-91
2023/12/30 00:43:39;;;;;;;;;;;8.70;99.90;;;;;;5049106;28;20029;-92
2023/12/30 00:46:05;;;;;;;4.18;2.70;;;8.60;99.90;;;;;;5069128;28;20294;-90
2023/12/30 00:48:31;;;;;;;5.00;2.70;;;8.60;99.90;;;;;;5119397;22;20107;-93
2023/12/30 00:50:58;;;;;;;3.58;2.55;;;8.50;99.90;;;;;;5112958;28;20047;-92
2023/12/30 00:53:25;;;;;;;3.53;1.85;;;8.50;99.90;;;;;;5104010;28;20020;-93
2023/12/30 00:55:54;;;;;;;2.97;2.38;;;8.50;99.90;;;;;;5091861;28;20032;-93
2023/12/30 00:58:21;;;;;;;4.43;3.08;;;8.40;99.90;;;;;;5079148;28;20084;-93
2023/12/30 01:00:51;;;;;;;6.88;1.92;;;8.40;99.90;;;;;;5092945;28;20028;-94
2023/12/30 01:03:18;;;;;;;3.85;2.05;;;8.40;99.90;;;;;;5098634;28;20043;-93
2023/12/30 01:05:44;;;;;;;4.30;1.60;;;8.40;99.90;;;;;;5083041;28;20021;-93
2023/12/30 01:08:11;;;;;;;3.78;1.92;;;8.40;99.90;;;;;;5082425;28;20025;-93
2023/12/30 01:10:37;;;;;;;4.00;2.10;;;8.40;99.90;;;;;;5081059;28;20563;-94
2023/12/30 01:13:05;;;;;;;4.72;2.88;;;8.30;99.90;;;;;;5080834;28;20016;-94
2023/12/30 01:15:31;;;;;;;3.30;2.17;;;8.30;99.90;;;;;;5081723;28;20021;-93
2023/12/30 01:17:57;;;;;;;4.13;2.83;;;8.20;99.90;;;;;;5080243;28;20031;-93
2023/12/30 01:20:23;;;;;;;2.83;1.90;;;8.30;99.90;;;;;;5101444;28;20020;-93
2023/12/30 01:22:49;;;;;;;5.95;3.42;;;8.20;99.90;;;;;;5101824;28;20120;-93
2023/12/30 01:25:15;;;;;;;4.43;3.55;;;8.30;99.90;;;;;;5083974;28;20032;-94
2023/12/30 01:27:41;;;;;;;4.18;2.92;;;8.20;99.90;;;;;;5095042;28;20278;-93
2023/12/30 01:30:07;;;;;;;3.90;1.92;;;8.20;99.90;;;;;;5080441;28;20036;-93
2023/12/30 01:32:34;;;;;;;3.15;2.20;;;8.10;99.90;;;;;;5086884;28;20474;-93
2023/12/30 01:35:00;;;;;;;3.13;2.13;;;8.10;99.90;;;;;;5083913;28;20513;-94
2023/12/30 01:37:26;;;;;;;3.13;2.33;;;8.10;99.90;;;;;;5080586;28;20024;-94
2023/12/30 01:39:52;;;;;;;5.40;2.92;;;8.00;99.90;;;;;;5088596;28;20020;-94
2023/12/30 01:42:17;;;;;;;3.40;2.33;;;8.10;99.90;;;;;;5089559;28;20518;-93
2023/12/30 01:44:43;;;;;;;5.13;2.40;;;8.10;99.90;;;;;;5080976;28;20035;-93
2023/12/30 01:47:09;;;;;;;4.95;3.88;;;8.10;99.90;;;;;;5089995;28;20344;-94
2023/12/30 01:49:35;;;;;;;3.00;2.22;;;8.20;99.90;;;;;;5079105;28;20029;-92
2023/12/30 01:52:02;;;;;;;5.72;2.42;;;8.10;99.90;;;;;;5081075;28;20040;-93
2023/12/30 01:54:29;;;;;;;4.30;2.50;;;8.20;99.90;;;;;;5077901;28;20032;-94
2023/12/30 01:56:56;;;;;;;6.90;3.00;;;8.10;99.90;;;;;;5079950;28;20028;-93
2023/12/30 01:59:22;;;;;;;4.35;2.90;;;8.10;99.90;;;;;;5088812;28;20448;-93
2023/12/30 02:01:48;;;;;;;4.53;2.28;;;8.20;99.90;;;;;;5080553;28;20470;-93
2023/12/30 02:04:14;;;;;;;4.55;2.15;;;8.20;99.90;;;;;;5088003;28;20107;-92
2023/12/30 02:06:40;;;;;;;6.00;2.67;;;8.20;99.90;;;;;;5080355;28;20029;-93
2023/12/30 02:09:07;;;;;;;6.15;2.33;;;8.20;99.90;;;;;;5080132;28;20509;-94
2023/12/30 02:11:33;;;;;;;4.68;2.60;;;8.20;99.90;;;;;;5081190;28;20021;-94
2023/12/30 02:13:59;;;;;;;3.80;2.65;;;8.20;99.90;;;;;;5078910;28;20543;-94
2023/12/30 02:16:25;;;;;;;6.20;2.72;;;8.20;99.90;;;;;;5091792;28;20110;-93
2023/12/30 02:18:51;;;;;;;4.63;2.40;;;8.20;99.90;;;;;;5084984;28;20494;-94
2023/12/30 02:21:17;;;;;;;5.47;2.58;;;8.10;99.90;;;;;;5090731;28;20030;-93
2023/12/30 02:23:42;;;;;;;3.65;2.83;;;8.20;99.90;;;;;;5089475;28;20032;-93
2023/12/30 02:26:08;;;;;;;3.30;2.22;;;8.20;99.90;;;;;;5090639;28;20032;-92
2023/12/30 02:28:34;;;;;;;4.63;2.75;;;8.20;99.90;;;;;;5086274;28;20083;-93
2023/12/30 02:31:00;;;;;;;5.32;3.40;;;8.20;99.90;;;;;;5086191;28;20443;-93
2023/12/30 02:33:26;;;;;;;8.90;2.00;;;8.30;99.90;;;;;;5088299;28;20020;-93
2023/12/30 02:35:52;;;;;;;3.85;2.33;;;8.20;99.90;;;;;;5078546;28;20028;-92
2023/12/30 02:38:18;;;;;;;3.97;2.35;;;8.20;99.90;;;;;;5081975;28;20017;-94
2023/12/30 02:40:46;;;;;;;5.68;3.03;;;8.20;99.90;;;;;;5085181;28;20031;-92
2023/12/30 02:43:12;;;;;;;5.70;2.97;;;8.20;99.90;;;;;;5079552;28;20031;-93
2023/12/30 02:45:38;;;;;;;5.57;3.05;;;8.20;99.90;;;;;;5088788;28;20025;-94
2023/12/30 02:48:04;;;;;;;4.20;2.75;;;8.20;99.90;;;;;;5096326;28;20020;-93
2023/12/30 02:50:30;;;;;;;5.18;3.45;;;8.20;99.90;;;;;;5077926;28;20090;-94
2023/12/30 02:52:55;;;;;;;4.55;3.28;;;8.20;99.90;;;;;;5083261;28;20436;-93
2023/12/30 02:55:21;;;;;;;5.88;4.78;;;8.20;99.90;;;;;;5080971;28;20056;-95
2023/12/30 02:57:47;;;;;;;6.57;4.28;;;8.10;99.90;;;;;;5087007;28;20578;-94
2023/12/30 03:00:13;;;;;;;6.03;4.32;;;8.20;99.90;;;;;;5079797;28;20028;-92
2023/12/30 03:02:39;;;;;;;7.55;3.75;;;8.20;99.90;;;;;;5097001;28;20052;-93
2023/12/30 03:05:05;;;;;;;5.22;3.53;;;8.10;99.90;;;;;;5088720;28;20028;-93
2023/12/30 03:07:31;;;;;;;6.22;5.63;;;8.10;99.90;;;;;;5080202;28;20047;-93
2023/12/30 03:09:57;;;;;;;6.18;3.53;;;8.10;99.90;;;;;;5086807;28;20046;-94
2023/12/30 03:12:23;;;;;;;5.25;3.75;;;8.10;99.90;;;;;;5082167;28;20024;-93
2023/12/30 03:14:49;;;;;;;7.22;3.28;;;8.10;99.90;;;;;;5099085;28;20111;-93
2023/12/30 03:17:14;;;;;;;12.43;4.25;;;8.10;99.90;;;;;;5080912;28;20032;-93
2023/12/30 03:19:41;;;;;;;7.75;3.63;;;8.10;99.90;;;;;;5092968;28;20031;-93
2023/12/30 03:22:07;;;;;;;6.95;6.05;;;8.10;99.90;;;;;;5082295;28;20063;-93
2023/12/30 03:24:32;;;;;;;6.40;4.32;;;8.10;99.90;;;;;;5078708;28;20036;-94
2023/12/30 03:26:58;;;;;;;6.38;4.22;;;8.10;99.90;;;;;;5078712;28;20032;-93
2023/12/30 03:29:24;;;;;;;6.15;3.72;;;8.10;99.90;;;;;;5081641;28;20107;-94
2023/12/30 03:31:51;;;;;;;5.43;4.10;;;8.00;99.90;;;;;;5084240;28;20631;-94
2023/12/30 03:34:17;;;;;;;5.75;4.03;;;8.10;99.90;;;;;;5080102;28;20071;-94
2023/12/30 03:36:43;;;;;;;6.38;3.53;;;8.00;99.90;;;;;;5086293;28;20028;-93
2023/12/30 03:39:10;;;;;;;6.20;3.72;;;8.10;99.90;;;;;;5087232;28;20036;-94
2023/12/30 03:41:36;;;;;;;5.72;3.80;;;8.10;99.90;;;;;;5084264;28;20035;-92
2023/12/30 03:44:01;;;;;;;6.43;3.28;;;8.10;99.90;;;;;;5083287;28;20021;-93
2023/12/30 03:46:27;;;;;;;4.88;2.97;;;8.10;99.90;;;;;;5080056;28;20564;-94
2023/12/30 03:48:53;;;;;;;6.72;3.85;;;8.00;99.90;;;;;;5080521;28;20029;-93
2023/12/30 03:51:19;;;;;;;5.32;3.63;;;8.10;99.90;;;;;;5089985;28;20020;-95
2023/12/30 03:53:44;;;;;;;6.45;3.67;;;8.10;99.90;;;;;;5087718;28;20040;-94
2023/12/30 03:56:11;;;;;;;4.72;3.35;;;8.10;99.90;;;;;;5087449;28;20100;-93
2023/12/30 03:58:37;;;;;;;4.30;3.10;;;8.10;99.90;;;;;;5087205;28;20025;-94
2023/12/30 04:01:03;;;;;;;5.22;3.63;;;8.10;99.90;;;;;;5078255;28;20026;-94
2023/12/30 04:03:29;;;;;;;4.63;2.72;;;8.10;99.90;;;;;;5093678;28;20074;-93
2023/12/30 04:05:54;;;;;;;5.10;3.58;;;8.20;99.90;;;;;;5084901;28;20036;-93
2023/12/30 04:08:20;;;;;;;5.07;3.33;;;8.10;99.90;;;;;;5085555;28;20112;-92
2023/12/30 04:10:45;;;;;;;6.18;2.67;;;8.20;99.90;;;;;;5085604;28;20039;-94
2023/12/30 04:13:11;;;;;;;5.30;3.03;;;8.20;99.90;;;;;;5077129;28;20020;-94
2023/12/30 04:15:37;;;;;;;7.18;4.22;;;8.20;99.90;;;;;;5079184;28;20080;-94
2023/12/30 04:18:03;;;;;;;3.88;2.95;;;8.10;99.90;;;;;;5088121;28;20027;-93
2023/12/30 04:20:28;;;;;;;4.20;2.00;;;8.20;99.90;;;;;;5085620;28;20029;-93
2023/12/30 04:22:54;;;;;;;4.40;2.10;;;8.20;99.90;;;;;;5085473;28;20114;-94
2023/12/30 04:25:20;;;;;;;7.15;2.90;;;8.20;99.90;;;;;;5088678;28;20033;-94
2023/12/30 04:27:46;;;;;;;5.47;3.72;;;8.20;99.90;;;;;;5084528;28;20024;-93
2023/12/30 04:30:12;;;;;;;5.10;4.00;;;8.20;99.90;;;;;;5088580;28;20121;-94
2023/12/30 04:32:38;;;;;;;6.15;2.63;;;8.20;99.90;;;;;;5078377;28;20081;-93
2023/12/30 04:35:04;;;;;;;5.80;3.05;;;8.20;99.90;;;;;;5084980;28;20016;-93
2023/12/30 04:37:30;;;;;;;3.28;2.20;;;8.20;99.90;;;;;;5082579;28;20027;-93
2023/12/30 04:39:55;;;;;;;5.75;2.53;;;8.10;99.90;;;;;;5083781;28;20025;-94
2023/12/30 04:42:21;;;;;;;3.35;2.58;;;8.10;99.90;;;;;;5077511;28;20048;-93
2023/12/30 04:44:47;;;;;;;4.07;2.58;;;8.20;99.90;;;;;;5080830;28;20071;-93
2023/12/30 04:47:12;;;;;;;4.53;2.53;;;8.20;99.90;;;;;;5089648;28;20073;-93
2023/12/30 04:49:38;;;;;;;4.25;2.67;;;8.20;99.90;;;;;;5079846;28;20438;-93
2023/12/30 04:52:04;;;;;;;4.45;3.47;;;8.20;99.90;;;;;;5088114;28;20026;-94
2023/12/30 04:54:33;;;;;;;3.45;1.98;;;8.20;99.90;;;;;;5083477;28;20089;-93
2023/12/30 04:56:58;;;;;;;4.63;3.03;;;8.30;99.90;;;;;;5089506;28;20119;-93
2023/12/30 04:59:25;;;;;;;3.33;2.83;;;8.30;99.90;;;;;;5091626;28;20020;-93
2023/12/30 05:01:51;;;;;;;3.10;2.30;;;8.30;99.90;;;;;;5089229;28;20019;-93
2023/12/30 05:04:16;;;;;;;2.80;2.00;;;8.20;99.90;;;;;;5088971;28;20032;-94
2023/12/30 05:06:42;;;;;;;3.78;3.03;;;8.30;99.90;;;;;;5095313;28;20059;-93
2023/12/30 05:09:08;;;;;;;2.72;2.10;;;8.30;99.90;;;;;;5084604;28;20105;-93
2023/12/30 05:11:34;;;;;;;4.00;3.70;;;8.30;99.90;;;;;;5088863;28;20036;-93
2023/12/30 05:14:00;;;;;;;2.65;2.45;;;8.30;99.90;;;;;;5075665;28;20028;-93
2023/12/30 05:16:26;;;;;;;3.13;2.00;;;8.30;99.90;;;;;;5088971;28;20042;-93
2023/12/30 05:18:52;;;;;;;2.15;1.58;;;8.30;99.90;;;;;;5080067;28;20088;-94
2023/12/30 05:21:18;;;;;;;3.05;1.98;;;8.40;99.90;;;;;;5091657;28;20047;-94
2023/12/30 05:23:44;;;;;;;2.35;1.80;;;8.40;99.90;;;;;;5082874;28;20024;-94
2023/12/30 05:26:12;;;;;;;2.92;1.67;;;8.40;99.90;;;;;;5084106;28;20032;-93
2023/12/30 05:28:38;;;;;;;1.77;1.55;;;8.40;99.90;;;;;;5086043;28;20028;-92
2023/12/30 05:31:04;;;;;;;3.00;2.10;;;8.40;99.90;;;;;;5083294;28;20017;-93
2023/12/30 05:33:30;;;;;;;2.67;1.70;;;8.40;99.90;;;;;;5088862;28;20077;-94
2023/12/30 05:35:55;;;;;;;5.07;1.80;;;8.40;99.90;;;;;;5087402;28;20497;-94
2023/12/30 05:38:21;;;;;;;5.80;3.10;;;8.40;99.90;;;;;;5083296;28;20024;-93
2023/12/30 05:40:47;;;;;;;3.53;1.55;;;8.40;99.90;;;;;;5087456;28;20040;-93
2023/12/30 05:43:13;;;;;;;2.05;1.85;;;8.30;99.90;;;;;;5078689;28;20434;-93
2023/12/30 05:45:40;;;;;;;2.75;1.10;;;8.30;99.90;;;;;;5080423;28;20501;-92
2023/12/30 05:48:06;;;;;;;5.22;1.50;;;8.30;99.90;;;;;;5079447;28;20025;-93
2023/12/30 05:50:32;;;;;;;2.80;1.80;;;8.30;99.90;;;;;;5080288;28;20074;-93
2023/12/30 05:52:59;;;;;;;1.70;1.23;;;8.30;99.90;;;;;;5090370;28;20210;-93
2023/12/30 05:55:24;;;;;;;1.65;1.48;;;8.30;99.90;;;;;;5089280;28;20031;-93
2023/12/30 05:57:50;;;;;;;3.30;1.85;;;8.30;99.90;;;;;;5078285;28;20029;-93
2023/12/30 06:00:16;;;;;;;1.75;1.25;;;8.30;99.90;;;;;;5079439;28;20544;-93
2023/12/30 06:02:43;;;;;;;1.80;1.38;;;8.30;99.90;;;;;;5085904;28;20103;-93
2023/12/30 06:05:09;;;;;;;2.42;1.50;;;8.30;99.90;;;;;;5086404;28;20028;-93
2023/12/30 06:07:34;;;;;;;3.85;2.03;;;8.20;99.90;;;;;;5080085;28;20445;-93
2023/12/30 06:10:00;;;;;;;2.20;1.92;;;8.20;99.90;;;;;;5087389;28;20031;-94
2023/12/30 06:12:26;;;;;;;2.00;1.77;;;8.20;99.90;;;;;;5078776;28;20032;-93
2023/12/30 06:14:51;;;;;;;3.13;1.30;;;8.30;99.90;;;;;;5078533;28;20110;-94
2023/12/30 06:17:17;;;;;;;3.45;1.98;;;8.20;99.90;;;;;;5090730;28;20039;-95
2023/12/30 06:19:43;;;;;;;1.67;1.58;;;8.30;99.90;;;;;;5089144;28;20019;-94
2023/12/30 06:22:11;;;;;;;3.42;1.63;;;8.20;99.90;;;;;;5080737;28;20032;-94
2023/12/30 06:24:37;;;;;;;3.25;1.42;;;8.30;99.90;;;;;;5084269;28;20398;-92
2023/12/30 06:27:03;;;;;;;2.80;1.75;;;8.20;99.90;;;;;;5086579;28;20052;-94
2023/12/30 06:29:30;;;;;;;5.55;2.30;;;8.20;99.90;;;;;;5079725;28;20017;-94
2023/12/30 06:31:55;;;;;;;3.20;2.40;;;8.20;99.90;;;;;;5087887;28;20021;-95
2023/12/30 06:34:21;;;;;;;4.03;2.58;;;8.20;99.90;;;;;;5093229;28;20035;-94
2023/12/30 06:36:47;;;;;;;4.28;2.72;;;8.20;99.90;;;;;;5080573;28;20028;-93
2023/12/30 06:39:14;;;;;;;4.50;3.10;;;8.20;99.90;;;;;;5089396;28;20024;-93
2023/12/30 06:41:41;;;;;;;5.22;2.83;;;8.10;99.90;;;;;;5086414;28;20030;-92
2023/12/30 06:44:06;;;;;;;6.63;2.92;;;8.10;99.90;;;;;;5084083;28;20017;-94
2023/12/30 06:46:33;;;;;;;3.22;2.38;;;8.00;99.90;;;;;;5096109;28;20445;-94
2023/12/30 06:48:59;;;;;;;5.03;3.97;;;8.10;99.90;;;;;;5084158;28;20024;-93
2023/12/30 06:51:25;;;;;;;5.40;3.67;;;8.00;99.90;;;;;;5090369;28;20095;-94
2023/12/30 06:53:51;;;;;;;4.35;2.70;;;7.90;99.90;;;;;;5083284;28;20040;-93
2023/12/30 06:56:17;;;;;;;4.90;3.75;;;7.90;99.90;;;;;;5083954;28;20020;-94
2023/12/30 06:58:45;;;;;;;5.07;3.10;;;7.90;99.90;;;;;;5081590;28;20031;-95
2023/12/30 07:01:14;;;;;;;;;;;7.90;99.90;;;;;;5079361;28;20028;-93
2023/12/30 07:03:40;;;;;;;5.78;3.50;;;7.90;99.90;;;;;;5079877;28;19928;-93
2023/12/30 07:06:06;;;;;;;6.40;3.83;;;7.90;99.90;;;;;;5079958;28;20029;-94
2023/12/30 07:08:32;;;;;;;4.80;3.60;;;7.90;99.90;;;;;;5083413;28;20039;-94
2023/12/30 07:10:58;;;;;;;8.18;3.67;;;7.90;99.90;;;;;;5093149;28;20082;-94
2023/12/30 07:13:27;;;;;;;5.80;3.53;;;7.90;99.90;;;;;;5080447;28;20056;-93
2023/12/30 07:15:53;;;;;;;5.25;4.35;;;7.90;99.90;;;;;;5085343;28;20032;-94
2023/12/30 07:18:18;;;;;;;6.55;3.63;;;7.80;99.90;;;;;;5090180;28;20032;-92
2023/12/30 07:20:44;;;;;;;6.40;4.57;;;7.80;99.90;;;;;;5087132;28;20078;-92
2023/12/30 07:23:13;;;;;;;5.97;3.85;;;7.80;99.90;;;;;;5097944;28;20484;-96
2023/12/30 07:25:40;;;;;;;5.63;3.88;;;7.80;99.90;;;;;;5190078;22;20066;-95
2023/12/30 07:28:06;;;;;;;6.75;4.20;;;7.80;99.90;;;;;;5128341;28;20046;-93
2023/12/30 07:30:32;;;;;;;6.63;4.28;;;7.80;99.90;;;;;;5129021;28;20051;-93
2023/12/30 07:32:58;;;;;;;8.20;4.13;;;7.80;99.90;;;;;;5129570;28;20027;-94
2023/12/30 07:35:24;;;;;;;7.75;4.35;;;7.80;99.90;;;;;;5127785;28;20011;-93
2023/12/30 07:37:49;;;;;;;7.72;4.28;;;7.80;99.90;;;;;;5123282;28;20039;-94
2023/12/30 07:40:16;;;;;;;6.43;3.85;;;7.80;99.90;;;;;;5129032;28;20620;-93
2023/12/30 07:42:41;;;;;;;7.03;4.70;;;7.80;99.90;;;;;;5127292;28;20039;-93
2023/12/30 07:45:07;;;;;;;7.57;4.93;;;7.80;99.90;;;;;;5132297;28;20039;-92
2023/12/30 07:47:33;;;;;;;8.70;4.22;;;7.80;99.90;;;;;;5119084;28;20083;-94
2023/12/30 07:49:59;;;;;;;6.72;4.82;;;7.80;99.90;;;;;;5121184;28;20039;-94
2023/12/30 07:52:25;;;;;;;8.20;5.78;;;7.80;99.90;;;;;;5127847;28;20019;-94
2023/12/30 07:54:52;;;;;;;8.80;4.72;;;7.80;99.90;;;;;;5131754;28;20020;-95
2023/12/30 07:57:18;;;;;;;10.65;6.57;;;7.80;99.90;;;;;;5125308;28;20342;-94
2023/12/30 07:59:44;;;;;;;11.90;7.50;;;7.80;99.90;;;;;;5124401;28;20020;-93
2023/12/30 08:02:09;;;;;;;7.70;5.15;;;7.90;99.90;;;;;;5128259;28;20032;-95
2023/12/30 08:04:35;;;;;;;9.43;6.10;;;7.80;99.90;;;;;;5123989;28;20035;-94
2023/12/30 08:07:01;;;;;;;8.25;4.47;;;7.90;99.90;;;;;;5118671;28;20028;-94
2023/12/30 08:09:26;;;;;;;8.68;7.13;;;7.80;99.90;;;;;;5125253;28;20038;-94
2023/12/30 08:11:52;;;;;;;6.80;4.00;;;7.90;99.90;;;;;;5126554;28;20052;-95
2023/12/30 08:14:18;;;;;;;9.38;6.15;;;7.90;99.90;;;;;;5127476;28;20046;-93
2023/12/30 08:16:44;;;;;;;10.70;5.60;;;7.90;99.90;;;;;;5121126;27;20513;-93
2023/12/30 08:19:10;;;;;;;7.05;5.30;;;7.90;99.90;;;;;;5126343;28;20032;-93
2023/12/30 08:21:35;;;;;;;10.55;6.88;;;7.90;99.90;;;;;;5127398;28;20023;-93
2023/12/30 08:24:14;;;;;;;8.40;6.18;;;8.00;99.90;;;;;;5121891;28;20024;-88
2023/12/30 08:26:40;;;;;;;12.60;6.63;;;8.10;99.90;;;;;;5125586;28;20087;-92
2023/12/30 08:29:08;;;;;;;8.35;5.43;;;8.10;99.90;;;;;;5126520;28;20023;-93
2023/12/30 08:31:44;;;;;;;8.65;7.68;;;8.10;99.90;;;;;;5125154;28;20083;-94
2023/12/30 08:34:11;;;;;;;5.45;4.90;;;8.10;99.90;;;;;;5124584;28;20024;-93
2023/12/30 08:36:37;;;;;;;8.70;4.43;;;8.20;99.90;;;;;;5121109;28;20024;-93
2023/12/30 08:39:02;;;;;;;6.22;3.58;;;8.20;99.90;;;;;;5105646;28;20050;-92
2023/12/30 08:41:28;;;;;;;8.40;4.65;;;8.20;99.90;;;;;;5117504;28;20062;-94
2023/12/30 08:43:56;;;;;;;12.38;4.45;;;8.30;99.90;;;;;;5127328;28;20072;-94
2023/12/30 08:46:22;;;;;;;6.75;4.53;;;8.30;99.90;;;;;;5124924;28;20087;-93
2023/12/30 08:48:48;;;;;;;7.40;4.43;;;8.30;99.90;;;;;;5123222;28;20023;-92
2023/12/30 08:51:14;;;;;;;9.80;4.88;;;8.40;99.90;;;;;;5113871;28;20024;-95
2023/12/30 08:53:39;;;;;;;8.85;5.28;;;8.40;99.90;;;;;;5117247;28;20024;-94
2023/12/30 08:56:06;;;;;;;10.07;6.50;;;8.40;99.90;;;;;;5123886;28;20020;-94
2023/12/30 08:58:31;;;;;;;7.95;5.15;;;8.40;99.90;;;;;;5122707;28;20020;-92
2023/12/30 09:00:57;;;;;;;8.25;4.78;;;8.40;99.90;;;;;;5119830;28;20020;-94
2023/12/30 09:03:23;;;;;;;6.95;5.85;;;8.50;99.90;;;;;;5120200;28;20032;-93
2023/12/30 09:05:48;;;;;;;6.20;4.50;;;8.50;99.90;;;;;;5118725;28;20028;-95
2023/12/30 09:08:14;;;;;;;6.30;3.83;;;8.50;99.90;;;;;;5125317;28;20027;-92
2023/12/30 09:10:40;;;;;;;7.05;3.53;;;8.60;99.90;;;;;;5125927;28;20026;-94
2023/12/30 09:13:05;;;;;;;6.00;5.40;;;8.60;99.90;;;;;;5123786;28;20050;-94
2023/12/30 09:15:31;;;;;;;5.50;3.15;;;8.60;99.90;;;;;;5122840;28;20466;-93
2023/12/30 09:17:58;;;;;;;4.70;3.55;;;8.70;99.90;;;;;;5123934;28;20066;-93
2023/12/30 09:20:24;;;;;;;6.47;5.13;;;8.70;99.90;;;;;;5112241;28;20027;-91
2023/12/30 09:22:50;;;;;;;8.45;5.80;;;8.70;99.90;;;;;;5123081;28;20024;-92
2023/12/30 09:25:16;;;;;;;4.97;4.13;;;8.80;99.90;;;;;;5130422;28;20043;-95
2023/12/30 09:27:42;;;;;;;6.10;4.40;;;8.80;99.90;;;;;;5135498;28;20020;-95
2023/12/30 09:30:08;;;;;;;5.18;4.03;;;8.90;99.90;;;;;;5137602;28;20036;-93
2023/12/30 09:32:34;;;;;;;4.18;3.75;;;8.90;99.90;;;;;;5137846;28;20079;-94
2023/12/30 09:35:02;;;;;;;5.97;2.38;;;9.10;99.90;;;;;;5136878;28;20057;-94
2023/12/30 09:37:28;;;;;;;5.05;4.65;;;9.10;99.90;;;;;;5136014;28;20019;-94
2023/12/30 09:39:54;;;;;;;5.45;3.40;;;9.20;99.90;;;;;;5135619;28;20031;-95
2023/12/30 09:42:20;;;;;;;4.15;3.75;;;9.30;99.90;;;;;;5135972;28;20106;-95
2023/12/30 09:44:50;;;;;;;7.43;3.83;;;9.40;99.90;;;;;;5134811;28;20231;-95
2023/12/30 09:47:17;;;;;;;6.90;2.65;;;9.50;99.90;;;;;;5133272;28;20097;-92
2023/12/30 09:49:44;;;;;;;4.78;4.28;;;9.50;99.90;;;;;;5126263;28;20030;-93
2023/12/30 09:52:10;;;;;;;5.15;2.67;;;9.50;99.90;;;;;;5128031;28;20015;-94
2023/12/30 09:54:37;;;;;;;5.03;3.67;;;9.50;99.90;;;;;;5117547;28;20255;-93
2023/12/30 09:57:04;;;;;;;4.30;3.05;;;9.50;99.90;;;;;;5122251;28;20062;-92
2023/12/30 09:59:30;;;;;;;5.10;3.25;;;9.50;99.90;;;;;;5132643;28;20169;-95
2023/12/30 10:01:57;;;;;;;3.95;2.60;;;9.50;99.90;;;;;;5134431;28;20026;-93
2023/12/30 10:04:22;;;;;;;4.80;4.40;;;9.50;99.90;;;;;;5121894;28;20028;-93
2023/12/30 10:06:53;;;;;;;4.88;3.10;;;9.60;99.90;;;;;;5125781;28;20024;-94
2023/12/30 10:09:22;;;;;;;4.30;3.90;;;9.60;99.90;;;;;;5132749;28;20034;-94
2023/12/30 10:11:48;;;;;;;9.23;6.13;;;9.60;99.80;;;;;;5133336;28;20484;-93
2023/12/30 10:14:14;;;;;;;6.40;4.97;;;9.70;99.90;;;;;;5133437;28;20110;-94
2023/12/30 10:16:40;;;;;;;5.82;5.18;;;9.70;99.90;;;;;;5133150;28;20027;-94
2023/12/30 10:19:16;;;;;;;3.55;2.17;;;9.80;99.70;;;;;;5133500;28;20024;-91
2023/12/30 10:21:43;;;;;;;4.25;3.38;;;9.90;98.90;;;;;;5135254;28;20034;-92
2023/12/30 10:24:12;;;;;;;4.07;2.15;;;9.90;98.20;;;;;;5136138;28;20023;-92
2023/12/30 10:26:39;;;;;;;6.70;3.90;;;10.10;97.50;;;;;;5136752;28;20055;-91
2023/12/30 10:29:15;;;;;;;6.70;4.38;;;10.10;95.50;;;;;;5137415;28;20034;-92
2023/12/30 10:31:42;;;;;;;5.55;4.05;;;10.20;96.80;;;;;;5114861;28;20024;-93
2023/12/30 10:34:08;;;;;;;4.25;3.38;;;10.40;96.10;;;;;;5114843;28;20016;-93
2023/12/30 10:36:41;;;;;;;4.15;3.75;;;10.50;91.60;;;;;;5116084;28;20008;-93
2023/12/30 10:39:10;;;;;;;8.23;4.18;;;10.60;93.80;;;;;;5114963;28;20091;-92
2023/12/30 10:41:36;;;;;;;3.90;2.63;;;10.60;92.30;;;;;;5114142;28;20046;-92
2023/12/30 10:44:02;;;;;;;5.75;4.97;;;10.70;91.10;;;;;;5114493;28;20024;-91
2023/12/30 10:46:28;;;;;;;5.28;4.78;;;10.80;90.10;;;;;;5114240;28;20030;-92
2023/12/30 10:48:56;;;;;;;5.00;4.03;;;11.00;89.40;;;;;;5114260;28;20020;-92
2023/12/30 10:51:33;;;;;;;5.05;3.65;;;11.20;88.90;;;;;;5113076;28;20069;-92
2023/12/30 10:54:14;;;;;;;3.53;3.22;;;11.30;87.70;;;;;;5116309;28;20038;-91
2023/12/30 10:56:45;;;;;;;4.68;3.88;;;11.40;83.60;;;;;;5114940;28;20036;-92
2023/12/30 10:59:12;;;;;;;2.97;2.78;;;11.20;85.60;;;;;;5116086;28;20110;-89
2023/12/30 11:01:42;;;;;;;;;;;11.20;84.80;;;;;;5118838;28;20023;-91
2023/12/30 11:04:15;;;;;;;3.40;2.85;;;11.40;82.60;;;;;;5118085;28;19930;-91
2023/12/30 11:07:13;;;;;;;3.70;3.03;;;11.60;83.60;;;;;;5118200;28;20012;-91
2023/12/30 11:09:43;;;;;;;4.07;2.95;;;11.70;81.10;;;;;;5106891;28;20055;-93
2023/12/30 11:12:09;;;;;;;1.73;1.63;;;11.80;81.30;;;;;;5117909;28;20012;-90
2023/12/30 11:14:40;;;;;;;4.28;3.35;;;11.80;80.70;;;;;;5118314;28;20020;-91
2023/12/30 11:17:09;;;;;;;2.50;2.30;;;11.90;77.80;;;;;;5098327;28;20028;-90
2023/12/30 11:19:36;;;;;;;3.45;3.15;;;12.00;76.30;;;;;;5120495;28;20039;-91
2023/12/30 11:24:30;;;;;;;2.45;2.25;;;12.10;75.70;;;;;;5095728;28;20036;-92
2023/12/30 11:26:56;;;;;;;1.55;1.45;;;12.10;73.60;;;;;;5080022;28;20059;-91
2023/12/30 11:29:29;;;;;;;3.28;2.97;;;12.00;73.80;;;;;;5096449;28;20059;-91
2023/12/30 11:31:58;;;;;;;3.92;3.72;;;12.00;73.50;;;;;;5079418;28;20040;-91
2023/12/30 11:34:26;;;;;;;3.20;2.55;;;12.30;75.30;;;;;;5078101;28;20036;-91
2023/12/30 11:36:53;;;;;;;2.85;2.42;;;12.40;74.80;;;;;;5078215;28;20043;-91
2023/12/30 11:39:25;;;;;;;1.52;1.10;;;12.30;73.60;;;;;;5077643;28;20047;-90
2023/12/30 11:41:57;;;;;;;2.47;2.33;;;12.30;73.60;;;;;;5080085;28;20013;-91
2023/12/30 11:44:23;;;;;;;5.65;1.85;;;12.40;72.40;;;;;;5078310;28;20048;-91
2023/12/30 11:46:49;;;;;;;3.70;3.38;;;12.50;72.50;;;;;;5078121;28;20027;-91
2023/12/30 11:49:24;;;;;;;2.08;1.98;;;12.70;72.60;;;;;;5095963;28;20028;-91
2023/12/30 11:51:53;;;;;;;3.38;3.17;;;12.70;73.00;;;;;;5079513;28;20028;-92
2023/12/30 11:54:21;;;;;;;2.63;2.22;;;12.60;71.20;;;;;;5079307;28;20019;-91
2023/12/30 11:56:47;;;;;;;2.75;2.55;;;12.60;71.00;;;;;;5079657;28;20017;-90
2023/12/30 11:59:15;;;;;;;2.17;1.30;;;12.60;70.10;;;;;;5096825;28;20039;-92
2023/12/30 12:01:41;;;;;;;2.85;2.65;;;12.50;70.70;;;;;;5078267;28;20047;-92
2023/12/30 12:04:08;;;;;;;3.53;3.22;;;12.40;73.60;;;;;;5078948;28;20029;-92
2023/12/30 12:06:35;;;;;;;2.55;2.35;;;12.90;74.00;;;;;;5096928;28;20031;-92
2023/12/30 12:09:07;;;;;;;3.20;2.85;;;13.00;70.70;;;;;;5078750;28;20020;-90
2023/12/30 12:11:34;;;;;;;3.65;2.03;;;12.80;71.10;;;;;;5094879;28;20123;-92
2023/12/30 12:14:01;;;;;;;3.17;2.45;;;12.70;71.60;;;;;;5078319;28;20051;-91
2023/12/30 12:16:28;;;;;;;2.55;1.77;;;12.90;70.20;;;;;;5076556;28;20043;-92
2023/12/30 12:18:57;;;;;;;3.97;2.45;;;12.60;69.40;;;;;;5095359;28;20027;-93
2023/12/30 12:21:25;;;;;;;3.55;3.35;;;12.80;70.90;;;;;;5095380;28;20035;-91
2023/12/30 12:23:52;;;;;;;3.40;3.20;;;13.10;70.80;;;;;;5095813;28;20025;-91
2023/12/30 12:26:31;;;;;;;2.80;2.70;;;13.20;69.30;;;;;;5095298;28;20040;-92
2023/12/30 12:32:13;;;;;;;2.85;2.65;;;13.00;69.90;;;;;;5096852;28;20066;-91
2023/12/30 12:34:41;;;;;;;4.97;3.35;;;12.60;72.40;;;;;;5062219;28;20110;-91
2023/12/30 12:37:08;;;;;;;3.75;3.45;;;12.30;74.20;;;;;;5078508;28;20012;-91
2023/12/30 12:39:34;;;;;;;3.15;2.88;;;11.90;75.40;;;;;;5076849;28;20029;-92
2023/12/30 12:42:00;;;;;;;2.80;2.60;;;11.60;76.90;;;;;;5077755;28;20020;-91
2023/12/30 12:44:26;;;;;;;4.57;4.18;;;11.40;78.30;;;;;;5077878;28;20028;-91
2023/12/30 12:46:52;;;;;;;3.08;2.70;;;11.20;79.50;;;;;;5093943;28;20023;-92
2023/12/30 12:49:20;;;;;;;2.95;2.75;;;11.20;80.70;;;;;;5077270;28;20021;-92
2023/12/30 12:51:49;;;;;;;4.05;3.75;;;11.20;80.50;;;;;;5088294;28;20032;-93
2023/12/30 12:54:17;;;;;;;4.35;3.70;;;11.10;82.00;;;;;;5086602;28;20063;-91
2023/12/30 12:56:46;;;;;;;4.22;2.75;;;11.10;82.30;;;;;;5061617;28;20021;-94
2023/12/30 12:59:23;;;;;;;3.80;3.50;;;11.20;80.80;;;;;;5074730;28;20025;-92